Time;durP1;ratioP1;P1;durP2;ratioP2;P2;SDS_P1;SDS_P2;PMS_P1;PMS_P2;Temp;Humidity;BMP_temperature;BMP_pressure;BME280_temperature;BME280_humidity;BME280_pressure;Samples;Min_cycle;Max_cycle;Signal;HPM_P1;HPM_P2
2022/08/30 00:02:10;;;;;;;7.35;3.25;;;;;;;17.14;72.19;101937.78;5030816;28;20456;-72
2022/08/30 00:04:43;;;;;;;8.20;2.70;;;;;;;17.10;72.36;101933.50;5024109;28;20046;-71
2022/08/30 00:07:11;;;;;;;4.93;2.70;;;;;;;17.05;72.39;101937.19;5028346;28;20071;-72
2022/08/30 00:09:38;;;;;;;6.00;3.22;;;;;;;17.03;72.39;101941.75;5035141;28;20042;-71
2022/08/30 00:12:05;;;;;;;6.22;2.80;;;;;;;17.00;72.61;101947.19;5031075;28;20070;-72
2022/08/30 00:14:33;;;;;;;6.25;2.85;;;;;;;16.99;72.88;101942.78;5032683;28;20045;-72
2022/08/30 00:17:00;;;;;;;8.30;2.88;;;;;;;16.97;73.06;101946.44;5028285;28;20121;-72
2022/08/30 00:19:27;;;;;;;5.18;3.03;;;;;;;16.94;73.33;101942.09;5035974;28;20077;-73
2022/08/30 00:21:54;;;;;;;6.50;3.10;;;;;;;16.88;73.34;101934.31;5029978;28;20117;-72
2022/08/30 00:24:21;;;;;;;7.65;2.80;;;;;;;16.82;73.38;101940.75;5035137;28;20742;-71
2022/08/30 00:26:50;;;;;;;5.38;3.10;;;;;;;16.79;73.52;101940.88;5027971;28;20149;-71
2022/08/30 00:29:17;;;;;;;4.68;2.95;;;;;;;16.74;73.67;101929.53;5031597;28;20105;-71
2022/08/30 00:31:44;;;;;;;10.35;3.20;;;;;;;16.71;73.96;101927.00;5015620;28;20042;-71
2022/08/30 00:34:11;;;;;;;5.78;3.10;;;;;;;16.66;74.09;101932.50;5033189;28;20108;-71
2022/08/30 00:36:38;;;;;;;7.53;3.22;;;;;;;16.63;74.10;101942.41;5032510;28;20054;-71
2022/08/30 00:39:06;;;;;;;5.18;3.35;;;;;;;16.59;74.48;101936.31;5030202;28;20037;-74
2022/08/30 00:41:34;;;;;;;5.60;3.08;;;;;;;16.54;74.67;101938.28;5033169;28;20041;-75
2022/08/30 00:44:03;;;;;;;7.90;3.13;;;;;;;16.48;74.68;101950.06;5042652;28;20081;-74
2022/08/30 00:46:31;;;;;;;6.75;3.20;;;;;;;16.44;74.79;101943.94;5034191;28;20119;-74
2022/08/30 00:49:04;;;;;;;9.68;3.30;;;;;;;16.41;75.08;101937.88;5030973;28;20046;-73
2022/08/30 00:51:32;;;;;;;4.72;3.20;;;;;;;16.39;75.07;101939.72;5040994;28;20042;-73
2022/08/30 00:54:00;;;;;;;6.40;3.10;;;;;;;16.35;75.35;101940.78;5033704;28;20050;-72
2022/08/30 00:56:30;;;;;;;6.78;3.30;;;;;;;16.32;75.40;101946.22;5033010;28;20096;-72
2022/08/30 00:59:02;;;;;;;5.93;3.30;;;;;;;16.29;75.51;101942.72;5031658;28;20069;-72
2022/08/30 01:01:31;;;;;;;7.70;3.60;;;;;;;16.25;75.72;101946.44;5033226;28;20041;-73
2022/08/30 01:04:07;;;;;;;6.30;3.65;;;;;;;16.20;75.81;101947.53;5020498;28;20038;-73
2022/08/30 01:06:38;;;;;;;6.35;3.70;;;;;;;16.14;76.02;101952.16;5029758;28;20053;-72
2022/08/30 01:09:07;;;;;;;6.18;3.83;;;;;;;16.13;76.15;101952.22;5037431;28;20046;-72
2022/08/30 01:11:37;;;;;;;4.80;3.50;;;;;;;16.09;76.29;101946.13;5030125;28;20069;-74
2022/08/30 01:14:05;;;;;;;6.07;3.53;;;;;;;16.05;76.41;101947.16;5031811;28;20073;-73
2022/08/30 01:16:34;;;;;;;4.88;3.33;;;;;;;16.00;76.76;101943.81;5032622;28;20049;-73
2022/08/30 01:19:05;;;;;;;7.93;3.50;;;;;;;15.95;77.17;101951.94;5032478;28;20424;-72
2022/08/30 01:21:46;;;;;;;8.65;3.63;;;;;;;15.89;77.21;101951.28;5029230;28;20047;-72
2022/08/30 01:24:22;;;;;;;6.47;3.42;;;;;;;15.86;77.56;101954.06;5015465;28;20120;-72
2022/08/30 01:26:49;;;;;;;8.52;3.63;;;;;;;15.80;77.56;101940.03;5027386;28;20046;-72
2022/08/30 01:29:21;;;;;;;6.35;3.60;;;;;;;15.80;77.83;101941.81;5032485;28;20046;-74
2022/08/30 01:31:49;;;;;;;8.63;3.72;;;;;;;15.77;78.01;101942.78;5024767;28;20096;-73
2022/08/30 01:34:18;;;;;;;10.15;3.63;;;;;;;15.76;77.95;101942.84;5030701;28;20050;-72
2022/08/30 01:36:48;;;;;;;7.43;3.72;;;;;;;15.75;78.08;101952.59;5030567;28;20042;-73
2022/08/30 01:39:18;;;;;;;5.97;3.97;;;;;;;15.72;77.65;101952.69;5035562;28;20060;-73
2022/08/30 01:41:45;;;;;;;6.60;4.00;;;;;;;15.76;78.15;101958.81;5029113;28;20821;-73
2022/08/30 01:44:14;;;;;;;9.93;4.20;;;;;;;15.75;78.09;101960.56;5030427;28;20132;-73
2022/08/30 01:46:46;;;;;;;6.97;3.72;;;;;;;15.76;78.16;101964.13;5037707;28;20057;-72
2022/08/30 01:49:17;;;;;;;7.05;4.20;;;;;;;15.77;78.32;101965.84;5027249;28;20490;-71
2022/08/30 01:51:55;;;;;;;7.35;4.25;;;;;;;15.74;78.34;101969.47;5027327;28;20045;-71
2022/08/30 01:54:29;;;;;;;7.70;3.90;;;;;;;15.75;78.68;101965.88;5030285;28;20081;-72
2022/08/30 01:57:08;;;;;;;5.93;3.88;;;;;;;15.74;78.77;101961.50;5026820;28;20049;-71
2022/08/30 01:59:38;;;;;;;7.60;4.20;;;;;;;15.76;78.78;101962.31;5032627;28;20828;-71
2022/08/30 02:02:06;;;;;;;7.85;4.15;;;;;;;15.77;78.83;101950.75;5030281;28;20038;-71
2022/08/30 02:04:35;;;;;;;7.13;4.18;;;;;;;15.78;78.77;101951.63;5028191;28;20717;-71
2022/08/30 02:07:04;;;;;;;8.80;4.82;;;;;;;15.78;78.67;101955.16;5031087;28;20081;-71
2022/08/30 02:09:31;;;;;;;7.82;4.40;;;;;;;15.81;78.89;101956.84;5029740;28;20152;-71
2022/08/30 02:11:58;;;;;;;6.95;4.50;;;;;;;15.81;78.78;101947.09;5029909;28;20042;-71
2022/08/30 02:14:26;;;;;;;7.30;4.50;;;;;;;15.80;78.92;101948.00;5031268;28;20664;-71
2022/08/30 02:16:53;;;;;;;8.75;4.70;;;;;;;15.76;78.92;101946.38;5029446;28;20981;-71
2022/08/30 02:19:20;;;;;;;10.50;4.38;;;;;;;15.74;79.13;101937.56;5024786;28;20512;-72
2022/08/30 02:21:49;;;;;;;5.50;4.88;;;;;;;15.73;79.21;101941.16;5029366;28;20061;-72
2022/08/30 02:24:16;;;;;;;7.57;4.72;;;;;;;15.69;79.26;101937.72;5019662;28;20840;-72
2022/08/30 02:26:43;;;;;;;6.55;4.57;;;;;;;15.68;79.35;101927.16;5025848;28;20072;-72
2022/08/30 02:29:10;;;;;;;6.45;4.75;;;;;;;15.64;79.33;101933.50;5037643;28;20080;-72
2022/08/30 02:31:38;;;;;;;6.32;4.82;;;;;;;15.63;79.53;101937.94;5027608;28;20602;-72
2022/08/30 02:34:06;;;;;;;8.20;4.80;;;;;;;15.63;79.66;101934.41;5032761;28;20133;-72
2022/08/30 02:36:35;;;;;;;7.18;4.70;;;;;;;15.61;79.66;101920.31;5018309;28;20034;-72
2022/08/30 02:39:02;;;;;;;8.32;4.88;;;;;;;15.61;79.85;101928.31;5037912;28;20073;-72
2022/08/30 02:41:29;;;;;;;7.65;4.97;;;;;;;15.58;79.86;101931.06;5029421;28;20116;-73
2022/08/30 02:44:00;;;;;;;8.18;5.10;;;;;;;15.56;79.93;101927.56;5030335;28;20034;-73
2022/08/30 02:46:28;;;;;;;7.47;5.47;;;;;;;15.50;79.95;101926.88;5023534;28;20041;-72
2022/08/30 02:49:00;;;;;;;8.73;5.55;;;;;;;15.47;80.19;101929.63;5028639;28;20124;-72
2022/08/30 02:51:48;;;;;;;6.38;5.18;;;;;;;15.50;80.17;101933.97;5027672;28;20059;-72
2022/08/30 02:54:18;;;;;;;6.95;5.53;;;;;;;15.50;80.29;101924.22;5025953;28;20038;-72
2022/08/30 02:56:48;;;;;;;7.97;5.70;;;;;;;15.46;80.10;101922.56;5025517;28;20567;-72
2022/08/30 02:59:18;;;;;;;6.30;5.60;;;;;;;15.47;80.30;101919.00;5041486;28;20037;-71
2022/08/30 03:01:45;;;;;;;7.07;5.45;;;;;;;15.45;80.33;101915.50;5031272;28;20081;-73
2022/08/30 03:04:13;;;;;;;7.47;5.60;;;;;;;15.44;80.49;101918.25;5027512;28;20049;-71
2022/08/30 03:06:40;;;;;;;9.43;6.05;;;;;;;15.41;80.50;101921.88;5027579;28;20069;-71
2022/08/30 03:09:08;;;;;;;9.65;5.72;;;;;;;15.40;80.67;101916.59;5020505;28;20042;-73
2022/08/30 03:11:36;;;;;;;8.75;6.10;;;;;;;15.41;80.73;101921.00;5030015;28;20038;-72
2022/08/30 03:14:03;;;;;;;7.28;5.63;;;;;;;15.42;80.66;101922.72;5028651;28;20053;-72
2022/08/30 03:16:30;;;;;;;10.38;6.10;;;;;;;15.39;80.66;101918.41;5030469;28;20108;-72
2022/08/30 03:18:58;;;;;;;7.72;5.65;;;;;;;15.39;80.50;101921.06;5026876;28;20100;-72
2022/08/30 03:21:26;;;;;;;8.45;5.95;;;;;;;15.39;80.62;101918.41;5021753;28;20145;-72
2022/08/30 03:23:53;;;;;;;8.80;6.10;;;;;;;15.37;80.50;101915.75;5020422;28;20073;-72
2022/08/30 03:26:20;;;;;;;8.20;6.22;;;;;;;15.37;80.54;101920.22;5024018;28;20046;-72
2022/08/30 03:28:47;;;;;;;7.30;5.90;;;;;;;15.34;80.48;101926.53;5038147;28;20034;-72
2022/08/30 03:31:14;;;;;;;6.82;6.13;;;;;;;15.33;80.45;101926.53;5021460;28;20837;-72
2022/08/30 03:33:42;;;;;;;7.97;5.78;;;;;;;15.29;80.55;101933.75;5030482;28;20595;-73
2022/08/30 03:36:10;;;;;;;7.07;5.55;;;;;;;15.30;80.63;101934.63;5029898;28;20097;-72
2022/08/30 03:38:38;;;;;;;7.47;5.55;;;;;;;15.29;80.54;101936.41;5036837;28;20100;-73
2022/08/30 03:41:05;;;;;;;7.20;5.47;;;;;;;15.29;80.69;101930.25;5019049;28;20046;-73
2022/08/30 03:43:35;;;;;;;9.65;6.28;;;;;;;15.28;80.67;101925.84;5028597;28;20137;-74
2022/08/30 03:46:03;;;;;;;8.10;6.07;;;;;;;15.25;80.79;101924.16;5029481;28;20041;-74
2022/08/30 03:48:30;;;;;;;7.05;5.75;;;;;;;15.24;80.93;101921.53;5028568;28;20077;-73
2022/08/30 03:50:57;;;;;;;8.43;6.07;;;;;;;15.22;81.00;101921.59;5027135;28;20129;-72
2022/08/30 03:53:24;;;;;;;8.35;6.72;;;;;;;15.20;81.01;101929.63;5035143;28;20046;-72
2022/08/30 03:55:54;;;;;;;8.35;6.03;;;;;;;15.18;81.10;101933.22;5022448;28;20047;-71
2022/08/30 03:58:23;;;;;;;9.27;7.15;;;;;;;15.18;81.14;101939.44;5029208;28;20054;-72
2022/08/30 04:00:51;;;;;;;7.57;6.13;;;;;;;15.18;81.00;101939.44;5028797;28;20117;-71
2022/08/30 04:03:24;;;;;;;9.75;6.70;;;;;;;15.15;80.98;101939.53;5042561;28;20038;-75
2022/08/30 04:05:54;;;;;;;8.35;6.28;;;;;;;15.13;81.15;101932.53;5017344;28;20081;-75
2022/08/30 04:08:22;;;;;;;7.95;6.55;;;;;;;15.12;81.13;101930.78;5043237;28;20073;-71
2022/08/30 04:10:50;;;;;;;7.75;6.28;;;;;;;15.10;81.12;101937.94;5031428;28;20432;-71
2022/08/30 04:13:18;;;;;;;9.65;6.78;;;;;;;15.08;81.22;101935.34;5033931;28;20046;-70
2022/08/30 04:15:45;;;;;;;7.93;6.65;;;;;;;15.04;81.28;101933.69;5032097;28;20057;-70
2022/08/30 04:18:13;;;;;;;8.55;7.10;;;;;;;15.00;81.30;101934.72;5044768;28;20512;-70
2022/08/30 04:20:41;;;;;;;7.70;7.00;;;;;;;15.01;81.51;101929.34;5032794;28;20549;-70
2022/08/30 04:23:11;;;;;;;9.82;7.60;;;;;;;14.97;81.61;101929.47;5032234;28;20038;-69
2022/08/30 04:25:40;;;;;;;10.48;7.18;;;;;;;14.96;81.71;101933.06;5016802;28;20479;-71
2022/08/30 04:28:08;;;;;;;8.10;7.00;;;;;;;14.93;81.68;101934.03;5035614;28;20045;-71
2022/08/30 04:30:44;;;;;;;9.20;7.88;;;;;;;14.93;81.89;101938.44;5040761;28;20042;-71
2022/08/30 04:33:13;;;;;;;9.70;7.75;;;;;;;14.91;81.97;101935.84;5032576;28;20524;-71
2022/08/30 04:35:45;;;;;;;11.07;7.70;;;;;;;14.88;82.02;101936.81;5027522;28;20077;-70
2022/08/30 04:38:15;;;;;;;9.80;7.82;;;;;;;14.86;82.26;101937.75;5025685;28;20049;-70
2022/08/30 04:40:47;;;;;;;11.63;7.63;;;;;;;14.84;82.21;101937.81;5028447;28;20073;-68
2022/08/30 04:43:15;;;;;;;12.25;7.70;;;;;;;14.80;82.40;101940.63;5029194;28;20050;-69
2022/08/30 04:45:42;;;;;;;9.75;7.75;;;;;;;14.80;82.45;101943.28;5023629;28;20070;-72
2022/08/30 04:48:09;;;;;;;10.30;8.07;;;;;;;14.78;82.40;101948.66;5023940;28;20121;-71
2022/08/30 04:50:38;;;;;;;9.30;7.97;;;;;;;14.77;82.46;101953.97;5024913;28;20044;-72
2022/08/30 04:53:13;;;;;;;10.25;8.90;;;;;;;14.75;82.62;101954.88;5013670;28;20697;-71
2022/08/30 04:55:42;;;;;;;10.50;8.38;;;;;;;14.76;82.57;101955.78;5032160;28;20159;-71
2022/08/30 04:58:10;;;;;;;11.48;8.18;;;;;;;14.78;82.51;101958.38;5033486;28;20112;-71
2022/08/30 05:00:40;;;;;;;10.88;8.25;;;;;;;14.76;82.62;101955.78;5032761;28;20073;-71
2022/08/30 05:03:08;;;;;;;10.35;9.23;;;;;;;14.78;82.47;101961.03;5032609;28;20041;-71
2022/08/30 05:05:38;;;;;;;12.00;8.82;;;;;;;14.80;82.53;101962.75;5030862;28;20053;-71
2022/08/30 05:08:11;;;;;;;10.93;9.15;;;;;;;14.86;82.45;101967.84;5027941;28;20089;-71
2022/08/30 05:10:42;;;;;;;11.02;8.73;;;;;;;14.94;82.27;101969.41;5024166;28;20445;-71
2022/08/30 05:13:19;;;;;;;11.35;8.88;;;;;;;15.36;80.79;101967.16;5031772;28;20073;-71
2022/08/30 05:15:50;;;;;;;9.82;7.95;;;;;;;15.63;79.58;101967.19;5027250;28;20054;-71
2022/08/30 05:18:20;;;;;;;9.43;7.85;;;;;;;15.99;78.27;101974.84;5027795;28;20606;-71
2022/08/30 05:20:48;;;;;;;11.38;8.63;;;;;;;16.13;77.34;101977.00;5027297;28;20049;-71
2022/08/30 05:23:15;;;;;;;8.50;7.60;;;;;;;16.07;77.32;101971.06;5019804;28;20465;-71
2022/08/30 05:25:44;;;;;;;12.27;8.25;;;;;;;16.02;77.43;101968.56;5029101;28;20635;-72
2022/08/30 05:28:12;;;;;;;9.98;7.07;;;;;;;16.22;76.51;101972.31;5025562;28;20137;-71
2022/08/30 05:30:39;;;;;;;8.65;7.75;;;;;;;16.04;77.07;101972.00;5024711;28;20053;-71
2022/08/30 05:33:06;;;;;;;8.57;7.45;;;;;;;15.90;77.28;101969.00;5032080;28;20038;-71
2022/08/30 05:35:33;;;;;;;8.68;7.30;;;;;;;15.71;78.08;101974.03;5032060;28;20077;-70
2022/08/30 05:38:04;;;;;;;9.75;7.50;;;;;;;15.60;78.62;101975.25;5031365;28;20077;-71
2022/08/30 05:40:33;;;;;;;9.45;7.47;;;;;;;15.53;79.01;101981.69;5033379;28;20057;-71
2022/08/30 05:43:00;;;;;;;9.18;7.38;;;;;;;15.52;79.10;101982.63;5031428;28;20038;-71
2022/08/30 05:45:28;;;;;;;10.27;7.20;;;;;;;15.53;79.06;101985.22;5036045;28;20097;-71
2022/08/30 05:47:55;;;;;;;9.93;7.30;;;;;;;15.60;78.97;101988.53;5031255;28;20077;-71
2022/08/30 05:50:23;;;;;;;9.13;7.22;;;;;;;15.69;78.86;101976.75;5045129;28;20050;-72
2022/08/30 05:52:50;;;;;;;8.82;7.15;;;;;;;15.80;78.58;101984.34;5034388;28;20545;-71
2022/08/30 05:55:44;;;;;;;10.90;6.88;;;;;;;15.85;78.17;101987.75;5046151;28;20042;-71
2022/08/30 05:58:11;;;;;;;7.72;6.93;;;;;;;15.83;78.12;101987.75;5030240;28;20206;-71
2022/08/30 06:00:40;;;;;;;9.98;6.30;;;;;;;15.87;78.18;101982.38;5031960;28;20073;-71
2022/08/30 06:03:10;;;;;;;7.18;6.47;;;;;;;15.90;77.84;101984.94;5034469;28;20116;-71
2022/08/30 06:05:38;;;;;;;7.82;6.20;;;;;;;15.97;77.68;101997.94;5032475;28;20046;-72
2022/08/30 06:08:05;;;;;;;7.75;6.13;;;;;;;16.02;77.36;101987.19;5030674;28;20042;-72
2022/08/30 06:10:33;;;;;;;9.55;6.50;;;;;;;16.09;77.11;101988.69;5031233;28;20074;-72
2022/08/30 06:13:00;;;;;;;6.78;6.05;;;;;;;16.18;77.00;101984.81;5031802;28;20049;-72
2022/08/30 06:15:27;;;;;;;7.88;5.80;;;;;;;16.31;75.99;101982.59;5031241;28;20058;-72
2022/08/30 06:17:55;;;;;;;9.75;6.13;;;;;;;16.37;75.85;101981.50;5024222;28;20059;-72
2022/08/30 06:20:22;;;;;;;6.90;6.15;;;;;;;16.37;75.85;101979.72;5028004;28;20514;-72
2022/08/30 06:22:49;;;;;;;6.18;5.57;;;;;;;16.42;75.56;101983.09;5028407;28;20444;-72
2022/08/30 06:25:16;;;;;;;8.80;5.93;;;;;;;16.44;75.32;101983.88;5031306;28;20137;-72
2022/08/30 06:27:44;;;;;;;7.75;5.50;;;;;;;16.45;75.57;101988.28;5030444;28;20041;-72
2022/08/30 06:30:11;;;;;;;5.63;5.10;;;;;;;16.56;75.08;101982.56;5031215;28;20068;-71
2022/08/30 06:32:39;;;;;;;6.68;5.10;;;;;;;16.65;74.66;101978.69;5031460;28;20120;-71
2022/08/30 06:35:07;;;;;;;6.72;5.35;;;;;;;16.75;74.65;101981.88;5031257;28;20062;-72
2022/08/30 06:37:34;;;;;;;6.18;5.13;;;;;;;16.88;74.46;101979.59;5030310;28;20125;-71
2022/08/30 06:40:02;;;;;;;6.50;4.88;;;;;;;17.01;73.81;101974.69;5030685;28;20081;-72
2022/08/30 06:42:35;;;;;;;4.70;4.30;;;;;;;17.10;73.62;101979.63;5031511;28;20772;-72
2022/08/30 06:45:06;;;;;;;5.50;4.90;;;;;;;17.23;72.61;101980.03;5031508;28;20127;-72
2022/08/30 06:47:39;;;;;;;5.18;4.40;;;;;;;17.27;72.65;101978.13;5014191;28;20046;-72
2022/08/30 06:50:09;;;;;;;4.65;3.97;;;;;;;17.33;72.29;101981.41;5011679;28;20044;-73
2022/08/30 06:52:41;;;;;;;11.98;4.00;;;;;;;17.42;71.49;101982.81;5029066;28;20096;-72
2022/08/30 06:55:12;;;;;;;8.43;4.30;;;;;;;17.48;71.60;101982.56;5029345;28;20050;-73
2022/08/30 06:57:39;;;;;;;5.85;4.30;;;;;;;17.54;71.10;101976.97;5031474;28;20053;-73
2022/08/30 07:00:12;;;;;;;5.53;3.65;;;;;;;17.67;70.33;101987.13;5030981;28;20042;-72
2022/08/30 07:02:40;;;;;;;4.10;3.40;;;;;;;17.69;69.90;101980.78;5031225;28;20046;-72
2022/08/30 07:05:11;;;;;;;6.13;4.00;;;;;;;17.69;70.11;101975.47;5031365;28;20555;-70
2022/08/30 07:07:42;;;;;;;3.53;3.08;;;;;;;17.79;69.56;101977.72;5010990;28;20489;-71
2022/08/30 07:10:10;;;;;;;3.50;3.17;;;;;;;17.84;68.80;101986.41;5028037;28;20045;-70
2022/08/30 07:12:41;;;;;;;3.85;3.20;;;;;;;17.86;69.22;101973.84;5029340;28;20042;-70
2022/08/30 07:15:10;;;;;;;5.63;3.00;;;;;;;18.00;68.56;101978.66;5028495;28;20148;-71
2022/08/30 07:20:24;;;;;;;5.22;2.85;;;;;;;18.20;67.35;101972.41;5030681;28;20048;-71
2022/08/30 07:22:51;;;;;;;2.78;2.53;;;;;;;18.29;67.36;101976.50;5030815;28;20066;-71
2022/08/30 07:25:19;;;;;;;6.20;2.72;;;;;;;18.39;66.43;101980.47;5030520;28;20100;-71
2022/08/30 07:27:46;;;;;;;3.63;2.40;;;;;;;18.43;65.65;101984.72;5028712;28;21029;-71
2022/08/30 07:30:13;;;;;;;2.85;2.30;;;;;;;18.45;65.49;101987.34;5030394;28;20115;-71
2022/08/30 07:32:43;;;;;;;4.05;2.30;;;;;;;18.50;64.96;101990.66;5030955;28;20038;-71
2022/08/30 07:35:10;;;;;;;2.90;2.20;;;;;;;18.56;64.51;101993.06;5029786;28;20131;-71
2022/08/30 07:37:38;;;;;;;2.90;2.05;;;;;;;18.62;64.37;101997.22;5030955;28;20089;-72
2022/08/30 07:40:07;;;;;;;2.60;2.05;;;;;;;18.67;63.76;101994.38;5033533;28;20046;-73
2022/08/30 07:42:35;;;;;;;4.43;2.10;;;;;;;18.72;63.49;101995.00;5033053;28;20507;-72
2022/08/30 07:45:03;;;;;;;2.55;2.00;;;;;;;18.78;62.81;101997.38;5033207;28;20082;-72
2022/08/30 07:47:36;;;;;;;2.42;1.95;;;;;;;18.90;62.52;101999.47;5033030;28;20050;-71
2022/08/30 07:50:07;;;;;;;3.80;1.90;;;;;;;19.01;62.66;101993.69;5034082;28;20080;-72
2022/08/30 07:52:35;;;;;;;3.28;1.70;;;;;;;19.16;61.53;101991.19;5033735;28;20097;-71
2022/08/30 07:55:08;;;;;;;3.88;2.08;;;;;;;19.26;61.14;101992.47;5034557;28;20092;-71
2022/08/30 07:57:38;;;;;;;3.55;1.75;;;;;;;19.34;61.21;101997.47;5034320;28;20469;-71
2022/08/30 08:00:09;;;;;;;9.07;1.95;;;;;;;19.47;60.28;101995.91;5033174;28;20052;-71
2022/08/30 08:02:41;;;;;;;7.03;2.08;;;;;;;19.56;60.17;101991.91;5033876;28;20045;-71
2022/08/30 08:05:09;;;;;;;5.10;1.83;;;;;;;19.65;59.50;101995.94;5033432;28;20046;-71
2022/08/30 08:07:42;;;;;;;3.38;1.55;;;;;;;19.78;59.32;101999.72;5033824;28;20552;-71
2022/08/30 08:10:13;;;;;;;5.10;1.40;;;;;;;19.93;59.39;101995.44;5033738;28;20041;-71
2022/08/30 08:12:41;;;;;;;4.20;1.63;;;;;;;20.05;58.97;102001.06;5034228;28;20112;-71
2022/08/30 08:15:10;;;;;;;2.42;1.67;;;;;;;20.19;58.26;101995.00;5031872;28;20077;-71
2022/08/30 08:17:37;;;;;;;5.63;1.85;;;;;;;20.25;57.79;102000.88;5032763;28;20045;-71
2022/08/30 08:20:05;;;;;;;3.08;1.55;;;;;;;20.34;57.86;102002.22;5033056;28;20046;-70
2022/08/30 08:22:32;;;;;;;1.83;1.23;;;;;;;20.52;56.77;101994.13;5033841;28;20038;-71
2022/08/30 08:25:06;;;;;;;1.92;1.48;;;;;;;20.57;56.39;102002.78;5032691;28;20045;-70
2022/08/30 08:27:33;;;;;;;2.63;1.60;;;;;;;20.57;56.76;101994.75;5033563;28;20050;-70
2022/08/30 08:30:00;;;;;;;4.82;1.40;;;;;;;20.63;56.31;101997.09;5032756;28;20042;-70
2022/08/30 08:32:27;;;;;;;3.55;1.40;;;;;;;20.66;56.35;101999.59;5033008;28;20093;-70
2022/08/30 08:34:54;;;;;;;4.07;1.40;;;;;;;20.74;56.02;101996.56;5031963;28;20053;-70
2022/08/30 08:37:21;;;;;;;3.30;1.30;;;;;;;20.82;55.26;102007.69;5032838;28;20116;-70
2022/08/30 08:40:03;;;;;;;1.92;1.25;;;;;;;20.86;55.53;101997.69;5032524;28;20097;-70
2022/08/30 08:43:00;;;;;;;3.70;1.50;;;;;;;20.95;54.59;101999.84;5033030;28;20457;-69
2022/08/30 08:46:07;;;;;;;3.92;1.30;;;;;;;20.94;54.90;102003.47;5033078;28;20050;-70
2022/08/30 08:48:48;;;;;;;3.58;1.20;;;;;;;21.01;54.99;101998.63;5029914;28;20911;-70
2022/08/30 08:54:50;;;;;;;1.88;1.10;;;;;;;21.26;53.58;102008.81;5031942;28;20506;-71
2022/08/30 08:57:34;;;;;;;2.25;0.95;;;;;;;21.39;53.13;102007.19;5028798;28;20049;-70
2022/08/30 09:00:13;;;;;;;3.03;1.10;;;;;;;21.50;52.73;102000.31;5033036;28;20046;-71
2022/08/30 09:03:03;;;;;;;3.97;1.25;;;;;;;21.66;52.87;102003.84;5030113;28;20052;-70
2022/08/30 09:05:38;;;;;;;2.25;0.93;;;;;;;21.90;51.26;101998.00;5032866;28;20042;-71
2022/08/30 09:08:15;;;;;;;2.05;1.13;;;;;;;21.89;50.73;102004.31;5032306;28;20046;-70
2022/08/30 09:11:00;;;;;;;4.20;1.20;;;;;;;21.82;50.76;102011.00;5033283;28;20609;-70
2022/08/30 09:13:27;;;;;;;2.65;0.80;;;;;;;21.72;51.01;102005.31;5023723;28;20100;-71
2022/08/30 09:15:58;;;;;;;4.40;1.00;;;;;;;21.77;51.25;102005.91;5031197;28;20065;-70
2022/08/30 09:18:46;;;;;;;2.00;0.98;;;;;;;21.86;50.66;102012.53;5031546;28;20045;-70
2022/08/30 09:21:26;;;;;;;1.15;0.70;;;;;;;21.94;50.61;102009.41;5021848;28;20037;-70
2022/08/30 09:24:09;;;;;;;2.78;0.90;;;;;;;22.02;50.77;102004.44;5032695;28;20549;-70
2022/08/30 09:26:37;;;;;;;2.70;1.00;;;;;;;22.20;50.02;102005.13;5031535;28;20046;-71
2022/08/30 09:29:17;;;;;;;4.20;1.27;;;;;;;22.36;49.80;102005.06;5030997;28;20038;-71
2022/08/30 09:31:52;;;;;;;4.30;1.10;;;;;;;22.44;49.37;101994.72;5029672;28;20042;-70
2022/08/30 09:34:42;;;;;;;2.10;0.80;;;;;;;22.62;48.99;102002.56;5030169;28;20118;-71
2022/08/30 09:37:26;;;;;;;2.00;1.00;;;;;;;22.72;48.57;102014.47;5030224;28;20054;-70
2022/08/30 09:39:54;;;;;;;6.50;1.10;;;;;;;22.77;48.75;102006.09;5030784;28;20046;-71
2022/08/30 09:42:25;;;;;;;5.45;1.00;;;;;;;22.82;47.83;102006.69;5030684;28;20045;-70
2022/08/30 09:45:11;;;;;;;2.25;1.00;;;;;;;22.87;47.10;102009.94;5031627;28;20077;-71
2022/08/30 09:47:42;;;;;;;4.15;0.95;;;;;;;22.86;47.37;102007.34;5031316;28;20072;-70
2022/08/30 09:50:21;;;;;;;2.90;0.90;;;;;;;22.94;47.07;102005.88;5029303;28;20425;-70
2022/08/30 09:53:11;;;;;;;2.30;0.90;;;;;;;22.99;47.13;102002.91;5032461;28;20125;-70
2022/08/30 09:56:01;;;;;;;2.95;1.05;;;;;;;23.02;46.93;102008.06;5031199;28;20038;-71
2022/08/30 09:58:50;;;;;;;2.45;1.10;;;;;;;22.99;46.46;101999.34;5030630;28;20045;-70
2022/08/30 10:01:35;;;;;;;2.90;0.90;;;;;;;23.02;46.25;101994.63;5032089;28;20042;-70
2022/08/30 10:04:22;;;;;;;1.30;0.80;;;;;;;22.96;46.77;102006.66;5029104;28;20065;-70
2022/08/30 10:07:09;;;;;;;4.32;1.35;;;;;;;22.95;46.61;102010.28;5012523;28;20042;-71
2022/08/30 10:09:58;;;;;;;3.97;0.80;;;;;;;23.01;46.58;102000.13;5031081;28;20064;-70
2022/08/30 10:13:12;;;;;;;2.35;0.90;;;;;;;23.10;46.13;101994.16;5031839;28;20049;-70
2022/08/30 10:15:50;;;;;;;2.03;0.80;;;;;;;23.23;46.25;101988.84;5031367;28;20955;-70
2022/08/30 10:18:39;;;;;;;3.35;0.90;;;;;;;23.46;46.09;101990.00;5031354;28;20734;-70
2022/08/30 10:21:37;;;;;;;3.25;1.02;;;;;;;23.62;45.30;101992.50;5031825;28;20050;-70
2022/08/30 10:24:13;;;;;;;1.20;0.70;;;;;;;23.62;44.60;101995.22;5016054;28;20091;-70
2022/08/30 10:27:01;;;;;;;5.28;1.20;;;;;;;23.46;44.58;101997.22;5031274;28;20045;-70
2022/08/30 10:29:37;;;;;;;3.53;0.85;;;;;;;23.34;45.46;101999.75;5031594;28;20077;-70
2022/08/30 10:32:29;;;;;;;2.40;0.90;;;;;;;23.41;45.41;101998.38;5030387;28;20038;-71
2022/08/30 10:35:06;;;;;;;3.35;1.02;;;;;;;23.49;44.95;101992.50;5031447;28;20048;-70
2022/08/30 10:38:07;;;;;;;2.00;1.08;;;;;;;23.61;44.77;101995.31;5031429;28;20095;-70
2022/08/30 10:43:39;;;;;;;2.53;0.95;;;;;;;23.69;44.64;101988.47;5030966;28;20046;-70
2022/08/30 10:46:23;;;;;;;4.88;0.90;;;;;;;23.81;44.25;101981.38;5031430;28;20100;-71
2022/08/30 10:48:54;;;;;;;2.15;1.00;;;;;;;24.01;44.06;101981.84;5030534;28;20042;-70
2022/08/30 10:51:43;;;;;;;2.78;0.90;;;;;;;24.28;43.09;101983.56;5030986;28;20037;-71
2022/08/30 10:54:37;;;;;;;6.68;1.33;;;;;;;24.51;42.70;101979.25;5030590;28;20050;-70
2022/08/30 10:57:04;;;;;;;2.30;1.03;;;;;;;24.56;42.17;101981.59;5031049;28;20046;-70
2022/08/30 10:59:37;;;;;;;3.30;1.23;;;;;;;24.59;41.85;101981.38;5022865;28;20072;-70
2022/08/30 11:02:22;;;;;;;2.10;0.93;;;;;;;24.58;41.72;101974.25;5031552;28;20120;-70
2022/08/30 11:05:43;;;;;;;3.25;0.90;;;;;;;24.70;41.20;101977.94;5029977;28;20046;-71
2022/08/30 11:08:57;;;;;;;2.63;0.95;;;;;;;24.58;41.33;101985.03;5031147;28;20073;-70
2022/08/30 11:11:33;;;;;;;6.57;1.23;;;;;;;24.54;41.54;101976.31;5030709;28;20046;-70
2022/08/30 11:14:04;;;;;;;4.55;0.77;;;;;;;24.53;41.44;101974.59;5030527;28;20092;-70
2022/08/30 11:16:40;;;;;;;1.95;1.08;;;;;;;24.60;41.22;101965.09;5010968;28;20109;-70
2022/08/30 11:19:39;;;;;;;3.55;0.80;;;;;;;24.78;41.02;101970.16;5011363;28;20125;-71
2022/08/30 11:22:14;;;;;;;4.30;1.23;;;;;;;24.90;40.63;101963.88;5011422;28;20074;-71
2022/08/30 11:25:14;;;;;;;1.45;0.73;;;;;;;25.08;39.98;101964.31;5010721;28;20128;-72
2022/08/30 11:27:57;;;;;;;1.63;0.90;;;;;;;25.08;39.49;101968.84;5030086;28;20046;-72
2022/08/30 11:30:24;;;;;;;3.50;0.90;;;;;;;25.09;40.09;101957.09;5031037;28;20167;-71
2022/08/30 11:33:38;;;;;;;1.90;0.90;;;;;;;25.27;39.42;101969.19;5030699;28;20038;-72
2022/08/30 11:36:06;;;;;;;4.32;1.05;;;;;;;25.24;39.16;101963.19;5029619;28;20124;-69
2022/08/30 11:38:33;;;;;;;1.10;0.77;;;;;;;25.12;38.98;101957.72;5030445;28;20066;-69
2022/08/30 11:41:07;;;;;;;3.97;1.40;;;;;;;25.06;39.20;101962.72;5030633;28;20656;-72
2022/08/30 11:43:38;;;;;;;3.78;0.90;;;;;;;24.94;39.33;101959.94;5030667;28;20152;-70
2022/08/30 11:46:26;;;;;;;2.53;0.93;;;;;;;24.92;39.63;101961.91;5028382;28;20049;-70
2022/08/30 11:49:18;;;;;;;3.72;1.10;;;;;;;24.97;39.88;101956.19;5030734;28;20038;-70
2022/08/30 11:52:34;;;;;;;4.50;1.02;;;;;;;25.04;39.85;101945.78;5007835;28;20130;-70
2022/08/30 11:55:24;;;;;;;3.80;1.08;;;;;;;25.24;39.00;101950.53;5029088;28;20074;-70
2022/08/30 11:58:32;;;;;;;5.18;0.90;;;;;;;25.00;39.39;101947.84;5030525;28;20038;-70
2022/08/30 12:01:29;;;;;;;3.38;1.10;;;;;;;25.07;39.59;101942.84;5030015;28;20049;-70